sensor_id;sensor_type;location;lat;lon;timestamp;temperature;humidity
32895;DHT22;19251;49.484;8.260;2022-07-15T00:04:16;20.40;12.90
32895;DHT22;19251;49.484;8.260;2022-07-15T00:09:18;20.30;13.10
32895;DHT22;19251;49.484;8.260;2022-07-15T00:14:20;20.30;13.30
32895;DHT22;19251;49.484;8.260;2022-07-15T00:19:22;20.10;13.40
32895;DHT22;19251;49.484;8.260;2022-07-15T00:24:24;20.10;13.60
32895;DHT22;19251;49.484;8.260;2022-07-15T00:29:26;20.10;13.80
32895;DHT22;19251;49.484;8.260;2022-07-15T00:34:28;19.90;13.90
32895;DHT22;19251;49.484;8.260;2022-07-15T00:39:30;19.90;14.20
32895;DHT22;19251;49.484;8.260;2022-07-15T00:44:32;19.80;14.40
32895;DHT22;19251;49.484;8.260;2022-07-15T00:49:34;19.70;14.60
32895;DHT22;19251;49.484;8.260;2022-07-15T00:54:37;19.70;14.70
32895;DHT22;19251;49.484;8.260;2022-07-15T00:59:40;19.60;14.90
32895;DHT22;19251;49.484;8.260;2022-07-15T01:04:42;19.50;15.00
32895;DHT22;19251;49.484;8.260;2022-07-15T01:09:44;19.40;15.10
32895;DHT22;19251;49.484;8.260;2022-07-15T01:14:46;19.30;15.40
32895;DHT22;19251;49.484;8.260;2022-07-15T01:19:49;19.20;15.50
32895;DHT22;19251;49.484;8.260;2022-07-15T01:24:52;19.10;15.70
32895;DHT22;19251;49.484;8.260;2022-07-15T01:34:57;19.00;15.90
32895;DHT22;19251;49.484;8.260;2022-07-15T01:40:01;18.90;16.10
32895;DHT22;19251;49.484;8.260;2022-07-15T01:45:04;18.80;16.20
32895;DHT22;19251;49.484;8.260;2022-07-15T01:50:07;18.80;16.30
32895;DHT22;19251;49.484;8.260;2022-07-15T01:55:10;18.70;16.50
32895;DHT22;19251;49.484;8.260;2022-07-15T02:00:14;18.60;16.60
32895;DHT22;19251;49.484;8.260;2022-07-15T02:05:17;18.60;16.90
32895;DHT22;19251;49.484;8.260;2022-07-15T02:10:21;18.50;17.00
32895;DHT22;19251;49.484;8.260;2022-07-15T02:20:26;18.30;17.40
32895;DHT22;19251;49.484;8.260;2022-07-15T02:25:31;18.30;17.60
32895;DHT22;19251;49.484;8.260;2022-07-15T02:30:36;18.30;17.70
32895;DHT22;19251;49.484;8.260;2022-07-15T02:35:39;18.20;17.70
32895;DHT22;19251;49.484;8.260;2022-07-15T02:40:42;18.20;17.90
32895;DHT22;19251;49.484;8.260;2022-07-15T02:45:45;18.10;18.00
32895;DHT22;19251;49.484;8.260;2022-07-15T02:50:49;18.10;18.20
32895;DHT22;19251;49.484;8.260;2022-07-15T02:55:52;18.00;18.20
32895;DHT22;19251;49.484;8.260;2022-07-15T03:00:55;18.00;18.40
32895;DHT22;19251;49.484;8.260;2022-07-15T03:06:00;18.00;18.60
32895;DHT22;19251;49.484;8.260;2022-07-15T03:11:02;17.90;18.70
32895;DHT22;19251;49.484;8.260;2022-07-15T03:16:05;17.80;19.00
32895;DHT22;19251;49.484;8.260;2022-07-15T03:21:10;17.80;19.20
32895;DHT22;19251;49.484;8.260;2022-07-15T03:26:13;17.70;19.10
32895;DHT22;19251;49.484;8.260;2022-07-15T03:31:16;17.70;19.10
32895;DHT22;19251;49.484;8.260;2022-07-15T03:36:19;17.70;19.10
32895;DHT22;19251;49.484;8.260;2022-07-15T03:41:22;17.60;19.00
32895;DHT22;19251;49.484;8.260;2022-07-15T03:46:24;17.60;19.30
32895;DHT22;19251;49.484;8.260;2022-07-15T03:51:27;17.60;19.50
32895;DHT22;19251;49.484;8.260;2022-07-15T03:56:33;17.50;19.70
32895;DHT22;19251;49.484;8.260;2022-07-15T04:01:35;17.50;19.80
32895;DHT22;19251;49.484;8.260;2022-07-15T04:06:37;17.50;20.00
32895;DHT22;19251;49.484;8.260;2022-07-15T04:11:39;17.40;20.00
32895;DHT22;19251;49.484;8.260;2022-07-15T04:16:45;17.50;20.30
32895;DHT22;19251;49.484;8.260;2022-07-15T04:21:50;17.50;20.40
32895;DHT22;19251;49.484;8.260;2022-07-15T04:26:53;17.50;20.50
32895;DHT22;19251;49.484;8.260;2022-07-15T04:31:55;17.50;20.70
32895;DHT22;19251;49.484;8.260;2022-07-15T04:36:59;17.50;20.80
32895;DHT22;19251;49.484;8.260;2022-07-15T04:42:03;17.60;20.90
32895;DHT22;19251;49.484;8.260;2022-07-15T04:47:08;17.70;21.00
32895;DHT22;19251;49.484;8.260;2022-07-15T04:52:11;17.70;21.00
32895;DHT22;19251;49.484;8.260;2022-07-15T04:57:15;17.80;21.20
32895;DHT22;19251;49.484;8.260;2022-07-15T05:02:19;17.90;21.30
32895;DHT22;19251;49.484;8.260;2022-07-15T05:07:22;18.00;21.40
32895;DHT22;19251;49.484;8.260;2022-07-15T05:12:24;18.10;21.50
32895;DHT22;19251;49.484;8.260;2022-07-15T05:17:27;18.30;21.60
32895;DHT22;19251;49.484;8.260;2022-07-15T05:22:29;18.40;21.70
32895;DHT22;19251;49.484;8.260;2022-07-15T05:27:32;18.60;21.80
32895;DHT22;19251;49.484;8.260;2022-07-15T05:32:36;18.80;21.80
32895;DHT22;19251;49.484;8.260;2022-07-15T05:37:39;18.90;21.80
32895;DHT22;19251;49.484;8.260;2022-07-15T05:42:43;19.10;21.80
32895;DHT22;19251;49.484;8.260;2022-07-15T05:47:48;19.40;21.60
32895;DHT22;19251;49.484;8.260;2022-07-15T05:52:51;19.60;21.30
32895;DHT22;19251;49.484;8.260;2022-07-15T05:57:54;19.90;21.10
32895;DHT22;19251;49.484;8.260;2022-07-15T06:02:57;20.40;21.20
32895;DHT22;19251;49.484;8.260;2022-07-15T06:07:59;20.70;20.20
32895;DHT22;19251;49.484;8.260;2022-07-15T06:13:02;21.00;19.90
32895;DHT22;19251;49.484;8.260;2022-07-15T06:18:05;21.20;19.60
32895;DHT22;19251;49.484;8.260;2022-07-15T06:23:07;21.60;18.90
32895;DHT22;19251;49.484;8.260;2022-07-15T06:28:10;21.80;18.60
32895;DHT22;19251;49.484;8.260;2022-07-15T06:33:12;21.90;18.30
32895;DHT22;19251;49.484;8.260;2022-07-15T06:38:16;22.20;17.50
32895;DHT22;19251;49.484;8.260;2022-07-15T06:43:18;22.40;17.10
32895;DHT22;19251;49.484;8.260;2022-07-15T06:48:21;22.70;16.70
32895;DHT22;19251;49.484;8.260;2022-07-15T06:53:23;22.90;15.90
32895;DHT22;19251;49.484;8.260;2022-07-15T06:58:27;23.00;15.50
32895;DHT22;19251;49.484;8.260;2022-07-15T07:03:31;23.10;15.10
32895;DHT22;19251;49.484;8.260;2022-07-15T07:08:53;23.20;15.00
32895;DHT22;19251;49.484;8.260;2022-07-15T07:13:56;23.50;14.60
32895;DHT22;19251;49.484;8.260;2022-07-15T07:18:58;23.70;14.50
32895;DHT22;19251;49.484;8.260;2022-07-15T07:24:00;24.00;13.60
32895;DHT22;19251;49.484;8.260;2022-07-15T07:29:03;24.20;13.40
32895;DHT22;19251;49.484;8.260;2022-07-15T07:34:05;24.40;13.10
32895;DHT22;19251;49.484;8.260;2022-07-15T07:39:07;24.50;12.50
32895;DHT22;19251;49.484;8.260;2022-07-15T07:44:09;24.70;12.00
32895;DHT22;19251;49.484;8.260;2022-07-15T07:49:11;24.90;11.90
32895;DHT22;19251;49.484;8.260;2022-07-15T07:54:34;25.10;12.00
32895;DHT22;19251;49.484;8.260;2022-07-15T07:59:37;25.30;11.60
32895;DHT22;19251;49.484;8.260;2022-07-15T08:04:39;25.40;11.40
32895;DHT22;19251;49.484;8.260;2022-07-15T08:09:42;25.60;11.10
32895;DHT22;19251;49.484;8.260;2022-07-15T08:14:45;25.80;10.30
32895;DHT22;19251;49.484;8.260;2022-07-15T08:19:47;26.00;10.20
32895;DHT22;19251;49.484;8.260;2022-07-15T08:24:49;26.00;9.60
32895;DHT22;19251;49.484;8.260;2022-07-15T08:29:51;26.00;9.70
32895;DHT22;19251;49.484;8.260;2022-07-15T08:34:54;26.00;9.40
32895;DHT22;19251;49.484;8.260;2022-07-15T08:39:56;26.10;9.30
32895;DHT22;19251;49.484;8.260;2022-07-15T08:44:58;26.10;9.20
32895;DHT22;19251;49.484;8.260;2022-07-15T08:55:02;26.30;8.80
32895;DHT22;19251;49.484;8.260;2022-07-15T09:00:05;26.30;8.60
32895;DHT22;19251;49.484;8.260;2022-07-15T09:10:23;26.60;7.80
32895;DHT22;19251;49.484;8.260;2022-07-15T09:15:32;26.70;7.80
32895;DHT22;19251;49.484;8.260;2022-07-15T09:20:35;27.00;7.50
32895;DHT22;19251;49.484;8.260;2022-07-15T09:25:38;27.20;7.10
32895;DHT22;19251;49.484;8.260;2022-07-15T09:30:41;27.40;6.90
32895;DHT22;19251;49.484;8.260;2022-07-15T09:41:04;27.60;6.60
32895;DHT22;19251;49.484;8.260;2022-07-15T09:46:06;27.70;6.50
32895;DHT22;19251;49.484;8.260;2022-07-15T09:51:13;27.90;6.10
32895;DHT22;19251;49.484;8.260;2022-07-15T09:56:16;28.10;5.90
32895;DHT22;19251;49.484;8.260;2022-07-15T10:01:23;28.20;5.70
32895;DHT22;19251;49.484;8.260;2022-07-15T10:06:27;28.30;5.30
32895;DHT22;19251;49.484;8.260;2022-07-15T10:11:29;28.40;5.40
32895;DHT22;19251;49.484;8.260;2022-07-15T10:21:36;28.90;4.90
32895;DHT22;19251;49.484;8.260;2022-07-15T10:31:58;29.20;4.10
32895;DHT22;19251;49.484;8.260;2022-07-15T10:37:04;29.40;3.80
32895;DHT22;19251;49.484;8.260;2022-07-15T10:42:08;29.40;3.50
32895;DHT22;19251;49.484;8.260;2022-07-15T10:52:18;29.70;2.40
32895;DHT22;19251;49.484;8.260;2022-07-15T10:57:20;29.70;2.50
32895;DHT22;19251;49.484;8.260;2022-07-15T11:02:24;29.70;2.10
32895;DHT22;19251;49.484;8.260;2022-07-15T11:07:27;29.70;2.70
32895;DHT22;19251;49.484;8.260;2022-07-15T11:22:35;30.40;1.90
32895;DHT22;19251;49.484;8.260;2022-07-15T11:27:37;30.40;1.90
32895;DHT22;19251;49.484;8.260;2022-07-15T11:32:39;30.30;1.80
32895;DHT22;19251;49.484;8.260;2022-07-15T11:37:43;30.30;2.40
32895;DHT22;19251;49.484;8.260;2022-07-15T11:42:45;30.10;1.70
32895;DHT22;19251;49.484;8.260;2022-07-15T11:48:06;30.10;1.70
32895;DHT22;19251;49.484;8.260;2022-07-15T11:53:11;30.00;1.60
32895;DHT22;19251;49.484;8.260;2022-07-15T11:58:14;30.10;1.70
32895;DHT22;19251;49.484;8.260;2022-07-15T12:03:16;30.40;1.80
32895;DHT22;19251;49.484;8.260;2022-07-15T12:08:32;30.70;2.00
32895;DHT22;19251;49.484;8.260;2022-07-15T12:13:41;31.00;1.20
32895;DHT22;19251;49.484;8.260;2022-07-15T12:18:44;31.00;1.20
32895;DHT22;19251;49.484;8.260;2022-07-15T12:23:59;31.30;1.00
32895;DHT22;19251;49.484;8.260;2022-07-15T12:29:02;31.70;1.00
32895;DHT22;19251;49.484;8.260;2022-07-15T12:34:04;31.80;1.00
32895;DHT22;19251;49.484;8.260;2022-07-15T12:39:16;31.90;1.00
32895;DHT22;19251;49.484;8.260;2022-07-15T12:44:22;32.20;1.00
32895;DHT22;19251;49.484;8.260;2022-07-15T12:49:40;32.60;1.00
32895;DHT22;19251;49.484;8.260;2022-07-15T12:54:42;32.60;1.00
32895;DHT22;19251;49.484;8.260;2022-07-15T13:04:52;33.00;1.00
32895;DHT22;19251;49.484;8.260;2022-07-15T13:09:55;32.90;1.00
32895;DHT22;19251;49.484;8.260;2022-07-15T13:14:57;32.90;1.00
32895;DHT22;19251;49.484;8.260;2022-07-15T13:19:59;33.20;1.00
32895;DHT22;19251;49.484;8.260;2022-07-15T13:25:05;33.40;1.00
32895;DHT22;19251;49.484;8.260;2022-07-15T13:30:07;33.60;1.00
32895;DHT22;19251;49.484;8.260;2022-07-15T13:35:10;34.10;1.00
32895;DHT22;19251;49.484;8.260;2022-07-15T13:40:13;34.40;1.00
32895;DHT22;19251;49.484;8.260;2022-07-15T13:45:16;34.70;1.00
32895;DHT22;19251;49.484;8.260;2022-07-15T13:50:18;34.70;1.00
32895;DHT22;19251;49.484;8.260;2022-07-15T13:55:39;35.20;1.00
32895;DHT22;19251;49.484;8.260;2022-07-15T14:00:44;35.20;1.00
32895;DHT22;19251;49.484;8.260;2022-07-15T14:05:47;35.20;1.00
32895;DHT22;19251;49.484;8.260;2022-07-15T14:10:49;35.30;1.00
32895;DHT22;19251;49.484;8.260;2022-07-15T14:15:51;35.40;1.00
32895;DHT22;19251;49.484;8.260;2022-07-15T14:20:53;35.70;1.00
32895;DHT22;19251;49.484;8.260;2022-07-15T14:25:55;36.40;1.00
32895;DHT22;19251;49.484;8.260;2022-07-15T14:30:57;36.70;1.00
32895;DHT22;19251;49.484;8.260;2022-07-15T14:35:59;36.70;1.00
32895;DHT22;19251;49.484;8.260;2022-07-15T14:41:01;36.40;1.00
32895;DHT22;19251;49.484;8.260;2022-07-15T14:46:03;36.40;1.00
32895;DHT22;19251;49.484;8.260;2022-07-15T14:51:06;37.10;1.00
32895;DHT22;19251;49.484;8.260;2022-07-15T14:56:08;37.80;1.00
32895;DHT22;19251;49.484;8.260;2022-07-15T15:01:18;38.00;1.00
32895;DHT22;19251;49.484;8.260;2022-07-15T15:06:20;38.30;1.00
32895;DHT22;19251;49.484;8.260;2022-07-15T15:11:23;38.90;1.00
32895;DHT22;19251;49.484;8.260;2022-07-15T15:16:25;38.90;1.00
32895;DHT22;19251;49.484;8.260;2022-07-15T15:21:48;38.90;1.00
32895;DHT22;19251;49.484;8.260;2022-07-15T15:26:50;39.10;1.00
32895;DHT22;19251;49.484;8.260;2022-07-15T15:31:53;39.20;1.00
32895;DHT22;19251;49.484;8.260;2022-07-15T15:36:55;39.60;1.00
32895;DHT22;19251;49.484;8.260;2022-07-15T15:41:57;40.30;1.00
32895;DHT22;19251;49.484;8.260;2022-07-15T15:46:59;40.70;1.00
32895;DHT22;19251;49.484;8.260;2022-07-15T15:52:03;40.90;1.00
32895;DHT22;19251;49.484;8.260;2022-07-15T15:57:05;41.60;1.00
32895;DHT22;19251;49.484;8.260;2022-07-15T16:02:07;41.80;1.00
32895;DHT22;19251;49.484;8.260;2022-07-15T16:07:10;42.30;1.00
32895;DHT22;19251;49.484;8.260;2022-07-15T16:12:12;42.80;1.00
32895;DHT22;19251;49.484;8.260;2022-07-15T16:17:14;43.00;1.00
32895;DHT22;19251;49.484;8.260;2022-07-15T16:22:16;43.20;1.00
32895;DHT22;19251;49.484;8.260;2022-07-15T16:27:37;43.50;1.00
32895;DHT22;19251;49.484;8.260;2022-07-15T16:32:40;43.60;1.00
32895;DHT22;19251;49.484;8.260;2022-07-15T16:37:42;43.70;1.00
32895;DHT22;19251;49.484;8.260;2022-07-15T16:42:44;43.80;1.00
32895;DHT22;19251;49.484;8.260;2022-07-15T16:47:47;43.90;1.00
32895;DHT22;19251;49.484;8.260;2022-07-15T16:52:49;43.80;1.00
32895;DHT22;19251;49.484;8.260;2022-07-15T16:57:51;43.70;1.00
32895;DHT22;19251;49.484;8.260;2022-07-15T17:02:53;43.70;1.00
32895;DHT22;19251;49.484;8.260;2022-07-15T17:07:56;43.60;1.00
32895;DHT22;19251;49.484;8.260;2022-07-15T17:12:58;43.60;1.00
32895;DHT22;19251;49.484;8.260;2022-07-15T17:18:00;43.40;1.00
32895;DHT22;19251;49.484;8.260;2022-07-15T17:23:02;43.00;1.00
32895;DHT22;19251;49.484;8.260;2022-07-15T17:28:04;41.00;1.00
32895;DHT22;19251;49.484;8.260;2022-07-15T17:33:06;39.10;1.00
32895;DHT22;19251;49.484;8.260;2022-07-15T17:38:26;39.00;1.00
32895;DHT22;19251;49.484;8.260;2022-07-15T17:43:28;37.70;1.00
32895;DHT22;19251;49.484;8.260;2022-07-15T17:48:30;36.40;1.00
32895;DHT22;19251;49.484;8.260;2022-07-15T17:53:32;35.20;1.00
32895;DHT22;19251;49.484;8.260;2022-07-15T17:58:34;34.00;1.00
32895;DHT22;19251;49.484;8.260;2022-07-15T18:03:36;33.90;1.00
32895;DHT22;19251;49.484;8.260;2022-07-15T18:08:38;34.30;1.00
32895;DHT22;19251;49.484;8.260;2022-07-15T18:13:40;34.30;1.00
32895;DHT22;19251;49.484;8.260;2022-07-15T18:18:43;35.30;1.00
32895;DHT22;19251;49.484;8.260;2022-07-15T18:23:45;35.10;1.00
32895;DHT22;19251;49.484;8.260;2022-07-15T18:28:47;35.10;1.00
32895;DHT22;19251;49.484;8.260;2022-07-15T18:33:49;34.40;1.00
32895;DHT22;19251;49.484;8.260;2022-07-15T18:38:51;33.20;1.00
32895;DHT22;19251;49.484;8.260;2022-07-15T18:43:53;32.40;1.00
32895;DHT22;19251;49.484;8.260;2022-07-15T18:48:55;32.20;1.00
32895;DHT22;19251;49.484;8.260;2022-07-15T18:53:57;31.40;1.00
32895;DHT22;19251;49.484;8.260;2022-07-15T18:59:00;30.80;1.00
32895;DHT22;19251;49.484;8.260;2022-07-15T19:04:02;30.30;1.00
32895;DHT22;19251;49.484;8.260;2022-07-15T19:09:04;29.50;1.00
32895;DHT22;19251;49.484;8.260;2022-07-15T19:14:07;29.40;1.00
32895;DHT22;19251;49.484;8.260;2022-07-15T19:19:09;28.80;1.00
32895;DHT22;19251;49.484;8.260;2022-07-15T19:24:12;28.50;1.00
32895;DHT22;19251;49.484;8.260;2022-07-15T19:29:14;28.40;1.00
32895;DHT22;19251;49.484;8.260;2022-07-15T19:34:16;28.10;1.00
32895;DHT22;19251;49.484;8.260;2022-07-15T19:39:18;27.30;1.00
32895;DHT22;19251;49.484;8.260;2022-07-15T19:44:27;27.30;1.00
32895;DHT22;19251;49.484;8.260;2022-07-15T19:49:29;26.70;1.00
32895;DHT22;19251;49.484;8.260;2022-07-15T19:54:31;26.50;1.00
32895;DHT22;19251;49.484;8.260;2022-07-15T19:59:33;26.10;1.00
32895;DHT22;19251;49.484;8.260;2022-07-15T20:04:54;25.70;1.00
32895;DHT22;19251;49.484;8.260;2022-07-15T20:09:56;25.40;1.00
32895;DHT22;19251;49.484;8.260;2022-07-15T20:14:58;25.20;1.00
32895;DHT22;19251;49.484;8.260;2022-07-15T20:20:00;25.00;1.00
32895;DHT22;19251;49.484;8.260;2022-07-15T20:25:03;24.70;1.00
32895;DHT22;19251;49.484;8.260;2022-07-15T20:30:12;24.50;1.00
32895;DHT22;19251;49.484;8.260;2022-07-15T20:35:15;24.30;1.00
32895;DHT22;19251;49.484;8.260;2022-07-15T20:40:17;23.90;1.00
32895;DHT22;19251;49.484;8.260;2022-07-15T20:45:20;23.80;1.00
32895;DHT22;19251;49.484;8.260;2022-07-15T20:50:22;23.50;1.00
32895;DHT22;19251;49.484;8.260;2022-07-15T20:55:24;23.20;1.30
32895;DHT22;19251;49.484;8.260;2022-07-15T21:00:27;22.90;1.70
32895;DHT22;19251;49.484;8.260;2022-07-15T21:05:30;22.80;1.80
32895;DHT22;19251;49.484;8.260;2022-07-15T21:10:32;22.60;2.30
32895;DHT22;19251;49.484;8.260;2022-07-15T21:20:37;22.20;3.10
32895;DHT22;19251;49.484;8.260;2022-07-15T21:25:39;22.00;3.20
32895;DHT22;19251;49.484;8.260;2022-07-15T21:31:00;21.80;3.50
32895;DHT22;19251;49.484;8.260;2022-07-15T21:36:02;21.60;4.00
32895;DHT22;19251;49.484;8.260;2022-07-15T21:41:05;21.40;4.30
32895;DHT22;19251;49.484;8.260;2022-07-15T21:46:07;21.40;4.50
32895;DHT22;19251;49.484;8.260;2022-07-15T21:51:09;21.20;4.70
32895;DHT22;19251;49.484;8.260;2022-07-15T21:56:15;21.00;4.90
32895;DHT22;19251;49.484;8.260;2022-07-15T22:01:17;21.00;5.60
32895;DHT22;19251;49.484;8.260;2022-07-15T22:06:21;20.70;5.60
32895;DHT22;19251;49.484;8.260;2022-07-15T22:11:23;20.60;5.70
32895;DHT22;19251;49.484;8.260;2022-07-15T22:16:26;20.50;6.00
32895;DHT22;19251;49.484;8.260;2022-07-15T22:21:28;20.30;6.40
32895;DHT22;19251;49.484;8.260;2022-07-15T22:26:30;20.20;6.60
32895;DHT22;19251;49.484;8.260;2022-07-15T22:31:33;20.10;6.90
32895;DHT22;19251;49.484;8.260;2022-07-15T22:36:35;19.90;7.30
32895;DHT22;19251;49.484;8.260;2022-07-15T22:41:37;19.80;7.70
32895;DHT22;19251;49.484;8.260;2022-07-15T22:46:39;19.80;7.90
32895;DHT22;19251;49.484;8.260;2022-07-15T22:51:41;19.60;7.80
32895;DHT22;19251;49.484;8.260;2022-07-15T22:56:43;19.50;7.80
32895;DHT22;19251;49.484;8.260;2022-07-15T23:01:45;19.40;8.20
32895;DHT22;19251;49.484;8.260;2022-07-15T23:06:47;19.30;8.50
32895;DHT22;19251;49.484;8.260;2022-07-15T23:11:49;19.20;8.60
32895;DHT22;19251;49.484;8.260;2022-07-15T23:16:51;19.20;8.90
32895;DHT22;19251;49.484;8.260;2022-07-15T23:21:54;19.10;8.90
32895;DHT22;19251;49.484;8.260;2022-07-15T23:26:56;19.00;9.40
32895;DHT22;19251;49.484;8.260;2022-07-15T23:31:59;19.00;9.60
32895;DHT22;19251;49.484;8.260;2022-07-15T23:37:21;18.80;9.90
32895;DHT22;19251;49.484;8.260;2022-07-15T23:42:23;18.70;10.10
32895;DHT22;19251;49.484;8.260;2022-07-15T23:47:25;18.60;10.20
32895;DHT22;19251;49.484;8.260;2022-07-15T23:52:28;18.50;10.50
32895;DHT22;19251;49.484;8.260;2022-07-15T23:57:30;18.50;10.70
